Time;durP1;ratioP1;P1;durP2;ratioP2;P2;SDS_P1;SDS_P2;PMS_P1;PMS_P2;Temp;Humidity;BMP_temperature;BMP_pressure;BME280_temperature;BME280_humidity;BME280_pressure;Samples;Min_cycle;Max_cycle;Signal;HPM_P1;HPM_P2
2022/05/05 00:09:07;;;;;;;0.20;0.00;;;15.30;99.90;;;;;;25633185;23;20177;-71
2022/05/05 00:19:12;;;;;;;0.20;0.00;;;15.30;99.90;;;;;;25632713;23;20190;-71
2022/05/05 00:29:17;;;;;;;0.20;0.10;;;15.10;99.90;;;;;;25631997;23;20174;-71
2022/05/05 00:39:22;;;;;;;0.20;0.10;;;14.90;99.90;;;;;;25660908;23;20194;-71
2022/05/05 00:49:25;;;;;;;0.20;0.00;;;14.80;99.90;;;;;;25633316;23;20170;-73
2022/05/05 00:59:31;;;;;;;0.20;0.00;;;14.80;99.90;;;;;;25658857;23;20213;-73
2022/05/05 01:09:35;;;;;;;6.40;6.07;;;14.60;99.90;;;;;;25656623;23;20170;-72
2022/05/05 01:19:41;;;;;;;0.20;0.00;;;14.70;99.90;;;;;;25658657;23;20654;-71
2022/05/05 01:29:46;;;;;;;0.20;0.10;;;14.60;99.90;;;;;;25656100;23;20197;-71
2022/05/05 01:39:50;;;;;;;0.20;0.00;;;14.70;99.90;;;;;;25658030;23;20190;-72
2022/05/05 01:49:59;;;;;;;0.20;0.00;;;14.90;99.90;;;;;;25655980;23;20194;-72
2022/05/05 02:00:04;;;;;;;0.20;0.03;;;14.90;99.90;;;;;;25655069;23;20257;-71
2022/05/05 02:10:13;;;;;;;0.20;0.10;;;14.90;99.90;;;;;;25631396;23;20521;-70
2022/05/05 02:20:17;;;;;;;0.23;0.23;;;14.60;99.90;;;;;;25654456;23;20190;-71
2022/05/05 02:30:23;;;;;;;0.20;0.10;;;14.90;99.90;;;;;;25655707;23;20163;-70
2022/05/05 02:40:27;;;;;;;0.20;0.00;;;14.90;99.90;;;;;;25650541;23;20186;-71
2022/05/05 02:50:33;;;;;;;0.20;0.10;;;14.50;99.90;;;;;;25654452;23;20198;-71
2022/05/05 03:00:43;;;;;;;0.20;0.00;;;14.50;99.90;;;;;;25654369;23;20197;-71
2022/05/05 03:10:48;;;;;;;0.20;0.00;;;14.60;99.90;;;;;;25625848;23;20171;-71
2022/05/05 03:20:52;;;;;;;0.20;0.10;;;14.60;99.90;;;;;;25626957;23;20201;-71
2022/05/05 03:30:57;;;;;;;0.20;0.10;;;14.60;99.90;;;;;;25626703;23;20170;-71
2022/05/05 03:41:01;;;;;;;0.20;0.10;;;14.50;99.90;;;;;;25627782;23;20197;-70
2022/05/05 03:51:07;;;;;;;0.20;0.10;;;14.60;99.90;;;;;;25650202;23;20189;-71
2022/05/05 04:01:10;;;;;;;0.20;0.10;;;14.40;99.90;;;;;;25628174;23;20194;-70
2022/05/05 04:11:16;;;;;;;0.20;0.00;;;14.00;99.90;;;;;;25650482;23;20173;-71
2022/05/05 04:21:20;;;;;;;0.20;0.00;;;14.00;99.90;;;;;;25651070;23;20492;-70
2022/05/05 04:31:30;;;;;;;0.20;0.10;;;13.80;99.90;;;;;;25652105;23;20177;-70
2022/05/05 04:41:34;;;;;;;0.20;0.10;;;13.50;99.90;;;;;;25657188;23;20186;-69
2022/05/05 04:51:39;;;;;;;0.20;0.10;;;13.50;99.90;;;;;;25655967;23;20201;-70
2022/05/05 05:01:43;;;;;;;0.20;0.07;;;13.40;99.90;;;;;;25651858;23;20192;-71
2022/05/05 05:11:48;;;;;;;0.20;0.00;;;13.50;99.90;;;;;;25629553;23;20402;-71
2022/05/05 05:21:52;;;;;;;0.20;0.10;;;13.80;99.90;;;;;;25654407;23;20194;-71
2022/05/05 05:31:57;;;;;;;0.20;0.00;;;13.90;99.90;;;;;;25627067;23;20611;-70
2022/05/05 05:42:01;;;;;;;0.20;0.00;;;14.20;99.90;;;;;;25650520;23;20201;-70
2022/05/05 05:52:07;;;;;;;0.20;0.00;;;14.40;99.90;;;;;;25627538;23;20213;-71
2022/05/05 06:12:34;;;;;;;0.20;0.00;;;15.10;99.90;;;;;;25615854;23;20197;-70
2022/05/05 06:22:38;;;;;;;0.20;0.07;;;15.70;99.90;;;;;;25617398;23;20197;-71
2022/05/05 06:32:45;;;;;;;0.20;0.00;;;16.10;99.90;;;;;;25600263;23;20170;-70
2022/05/05 06:42:49;;;;;;;0.20;0.00;;;16.40;99.90;;;;;;25619164;23;20186;-72
2022/05/05 06:52:54;;;;;;;0.20;0.10;;;16.70;99.90;;;;;;25619784;23;20410;-71
2022/05/05 07:02:58;;;;;;;0.20;0.10;;;16.60;99.90;;;;;;25643362;23;20182;-72
2022/05/05 07:13:04;;;;;;;0.20;0.10;;;16.90;99.90;;;;;;25647794;23;20363;-73
2022/05/05 07:23:12;;;;;;;0.20;0.10;;;17.30;99.90;;;;;;25612594;23;20187;-72
2022/05/05 07:33:17;;;;;;;0.20;0.10;;;17.30;99.90;;;;;;25649029;23;20490;-76
2022/05/05 07:43:21;;;;;;;0.20;0.00;;;17.50;99.90;;;;;;25617542;23;20386;-71
2022/05/05 07:53:27;;;;;;;0.20;0.10;;;17.50;99.90;;;;;;25618301;23;20201;-72
2022/05/05 08:03:31;;;;;;;0.20;0.10;;;17.30;99.90;;;;;;25646900;23;20301;-73
2022/05/05 08:13:36;;;;;;;0.20;0.10;;;17.40;99.90;;;;;;25630333;23;20170;-71
2022/05/05 08:23:41;;;;;;;0.20;0.10;;;18.00;99.90;;;;;;25653599;23;20190;-72
2022/05/05 08:33:47;;;;;;;0.20;0.00;;;18.90;99.90;;;;;;25655392;23;20174;-72
2022/05/05 08:43:51;;;;;;;0.20;0.20;;;19.60;99.90;;;;;;25628971;23;20190;-71
2022/05/05 08:54:08;;;;;;;0.20;0.10;;;20.00;99.90;;;;;;25628023;23;20198;-70
2022/05/05 09:04:12;;;;;;;0.20;0.10;;;20.60;99.90;;;;;;25650146;23;20190;-72
2022/05/05 09:14:19;;;;;;;0.20;0.10;;;20.80;99.90;;;;;;25626661;23;20178;-73
2022/05/05 09:24:41;;;;;;;0.20;0.00;;;21.00;99.90;;;;;;25651216;23;20194;-70
2022/05/05 09:34:46;;;;;;;0.20;0.10;;;20.60;99.90;;;;;;25650221;23;20170;-71
2022/05/05 09:44:50;;;;;;;0.20;0.10;;;20.20;99.90;;;;;;25625580;23;20198;-71
2022/05/05 10:05:22;;;;;;;0.20;0.10;;;20.60;99.90;;;;;;25650954;23;20197;-71
2022/05/05 10:15:28;;;;;;;0.20;0.10;;;20.70;99.90;;;;;;25649622;23;20174;-71
2022/05/05 10:25:53;;;;;;;0.40;0.40;;;20.70;99.90;;;;;;25623404;23;20450;-71
2022/05/05 10:36:24;;;;;;;0.20;0.00;;;21.20;99.90;;;;;;25623223;23;20186;-71
2022/05/05 10:46:57;;;;;;;0.27;0.27;;;21.80;99.90;;;;;;25651992;23;20190;-71
2022/05/05 10:57:34;;;;;;;0.20;0.00;;;21.50;99.90;;;;;;25626910;23;20254;-70
2022/05/05 11:07:39;;;;;;;0.20;0.10;;;21.00;99.90;;;;;;25648913;23;20189;-72
2022/05/05 11:28:23;;;;;;;0.20;0.10;;;23.00;99.90;;;;;;25649540;23;20178;-73
2022/05/05 11:38:28;;;;;;;0.20;0.00;;;23.40;99.90;;;;;;25646898;23;20170;-72
2022/05/05 11:48:34;;;;;;;0.20;0.00;;;22.80;99.90;;;;;;25630940;23;20336;-72
2022/05/05 12:09:07;;;;;;;0.20;0.00;;;19.50;99.90;;;;;;25629507;23;20503;-72
2022/05/05 12:19:12;;;;;;;0.20;0.10;;;19.10;99.90;;;;;;25625856;23;20238;-72
2022/05/05 12:29:42;;;;;;;0.20;0.00;;;20.80;99.90;;;;;;25650267;23;20246;-71
2022/05/05 12:40:01;;;;;;;0.20;0.00;;;23.70;99.90;;;;;;25652713;23;20183;-72
2022/05/05 12:50:26;;;;;;;8.90;6.13;;;22.90;99.90;;;;;;25629475;23;20180;-70
2022/05/05 13:00:29;;;;;;;0.20;0.10;;;20.00;99.90;;;;;;25653852;23;20202;-74
2022/05/05 13:10:55;;;;;;;0.20;0.10;;;19.60;99.90;;;;;;25622222;23;20437;-72
2022/05/05 13:20:59;;;;;;;0.20;0.00;;;19.30;99.90;;;;;;25657105;23;20181;-73
2022/05/05 13:31:04;;;;;;;0.20;0.20;;;18.60;99.90;;;;;;25629778;23;20170;-72
2022/05/05 13:41:08;;;;;;;0.20;0.00;;;18.70;99.90;;;;;;25655420;23;20209;-73
2022/05/05 13:51:14;;;;;;;0.20;0.10;;;19.20;99.90;;;;;;25655088;23;20202;-71
2022/05/05 14:01:18;;;;;;;0.20;0.00;;;19.10;99.90;;;;;;25653904;23;20189;-72
2022/05/05 14:21:44;;;;;;;0.20;0.00;;;21.60;99.90;;;;;;25656272;23;20182;-74
2022/05/05 14:31:50;;;;;;;0.20;0.00;;;21.60;99.90;;;;;;25625890;23;20177;-74
2022/05/05 14:41:54;;;;;;;0.20;0.10;;;23.20;99.90;;;;;;25654198;23;20452;-73
2022/05/05 14:51:59;;;;;;;0.20;0.10;;;20.70;99.90;;;;;;25624982;23;20321;-72
2022/05/05 15:02:03;;;;;;;0.20;0.00;;;22.50;99.90;;;;;;25624374;23;20236;-71
2022/05/05 15:12:09;;;;;;;0.20;0.10;;;19.90;99.90;;;;;;25624745;23;20239;-72
2022/05/05 15:22:13;;;;;;;0.20;0.10;;;20.70;99.90;;;;;;25644844;23;20253;-72
2022/05/05 15:32:19;;;;;;;0.20;0.10;;;20.30;99.90;;;;;;25647428;23;20170;-66
2022/05/05 15:42:23;;;;;;;0.20;0.00;;;20.30;99.90;;;;;;25644403;23;20182;-75
2022/05/05 15:52:28;;;;;;;0.20;0.10;;;21.10;99.90;;;;;;25619865;23;20385;-74
2022/05/05 16:02:33;;;;;;;0.20;0.10;;;20.10;99.90;;;;;;25645093;23;20190;-72
2022/05/05 16:12:39;;;;;;;0.20;0.00;;;20.60;99.90;;;;;;25646098;23;20410;-73
2022/05/05 16:22:43;;;;;;;0.20;0.10;;;20.20;99.90;;;;;;25644908;23;20209;-71
2022/05/05 16:32:51;;;;;;;0.20;0.10;;;20.40;99.90;;;;;;25627848;23;20182;-72
2022/05/05 16:42:56;;;;;;;0.20;0.10;;;20.40;99.90;;;;;;25650189;23;20214;-74
2022/05/05 16:53:01;;;;;;;0.20;0.00;;;20.60;99.90;;;;;;25625864;23;20220;-74
2022/05/05 17:03:05;;;;;;;0.20;0.10;;;20.60;99.90;;;;;;25632887;23;20281;-73
2022/05/05 17:13:10;;;;;;;0.33;0.33;;;20.10;99.90;;;;;;25656912;23;20170;-73
2022/05/05 17:23:14;;;;;;;0.20;0.10;;;22.60;99.90;;;;;;25629391;23;20217;-73
2022/05/05 17:33:19;;;;;;;1.70;1.60;;;23.30;99.90;;;;;;25628919;23;20170;-72
2022/05/05 17:43:23;;;;;;;0.20;0.00;;;23.60;99.90;;;;;;25654694;23;20197;-70
2022/05/05 17:53:32;;;;;;;0.20;0.00;;;22.80;99.90;;;;;;25656048;23;20217;-73
2022/05/05 18:03:43;;;;;;;0.20;0.00;;;21.10;99.90;;;;;;25631801;23;20193;-71
2022/05/05 18:13:50;;;;;;;0.20;0.10;;;19.90;99.90;;;;;;25627139;23;20198;-69
2022/05/05 18:23:53;;;;;;;0.20;0.10;;;19.20;99.90;;;;;;25626881;23;20186;-72
2022/05/05 18:33:59;;;;;;;0.20;0.00;;;19.20;99.90;;;;;;25655420;23;20224;-71
2022/05/05 18:44:03;;;;;;;0.20;0.10;;;18.80;99.90;;;;;;25626567;23;20258;-73
2022/05/05 18:54:09;;;;;;;0.20;0.10;;;18.80;99.90;;;;;;25629055;23;20205;-73
2022/05/05 19:04:12;;;;;;;0.20;0.00;;;18.90;99.90;;;;;;25650996;23;20190;-71
2022/05/05 19:14:17;;;;;;;0.20;0.10;;;18.50;99.90;;;;;;25654655;23;20185;-73
2022/05/05 19:24:21;;;;;;;0.20;0.00;;;18.60;99.90;;;;;;25627688;23;20205;-71
2022/05/05 19:34:28;;;;;;;0.20;0.10;;;18.40;99.90;;;;;;25628476;23;20165;-72
2022/05/05 19:44:33;;;;;;;0.20;0.10;;;18.30;99.90;;;;;;25623418;23;20200;-73
2022/05/05 19:54:38;;;;;;;0.20;0.10;;;17.80;99.90;;;;;;25652628;23;20190;-71
2022/05/05 20:15:08;;;;;;;0.20;0.10;;;17.30;99.90;;;;;;25659096;23;20158;-71
2022/05/05 20:25:12;;;;;;;0.20;0.10;;;17.70;99.90;;;;;;25631606;23;20198;-71
2022/05/05 20:35:17;;;;;;;0.20;0.10;;;17.70;99.90;;;;;;25657986;23;20193;-73
2022/05/05 20:45:26;;;;;;;0.20;0.10;;;17.50;99.90;;;;;;25655467;23;20208;-73
2022/05/05 20:55:32;;;;;;;0.20;0.10;;;17.30;99.90;;;;;;25655542;23;20206;-74
2022/05/05 21:05:35;;;;;;;0.20;0.10;;;17.20;99.90;;;;;;25657687;23;20185;-72
2022/05/05 21:15:41;;;;;;;0.20;0.10;;;17.10;99.90;;;;;;25657098;23;20170;-73
2022/05/05 21:25:44;;;;;;;0.20;0.10;;;17.10;99.90;;;;;;25628477;23;20488;-73
2022/05/05 21:35:49;;;;;;;0.20;0.20;;;17.00;99.90;;;;;;25628356;23;20197;-73
2022/05/05 21:45:55;;;;;;;0.20;0.10;;;16.80;99.90;;;;;;25630566;23;20198;-71
2022/05/05 21:56:01;;;;;;;0.20;0.10;;;16.70;99.90;;;;;;25628360;23;20212;-71
2022/05/05 22:06:06;;;;;;;0.20;0.10;;;16.50;99.90;;;;;;25654370;23;20186;-70
2022/05/05 22:16:11;;;;;;;0.20;0.07;;;16.50;99.90;;;;;;25651661;23;20212;-71
2022/05/05 22:26:15;;;;;;;0.20;0.10;;;16.40;99.90;;;;;;25654709;23;20189;-70
2022/05/05 22:36:21;;;;;;;0.20;0.00;;;16.30;99.90;;;;;;25652774;23;20171;-70
2022/05/05 22:46:25;;;;;;;0.20;0.10;;;16.20;99.90;;;;;;25652781;23;20221;-71
2022/05/05 22:56:30;;;;;;;0.20;0.00;;;16.20;99.90;;;;;;25623151;23;20206;-73
2022/05/05 23:06:34;;;;;;;0.20;0.00;;;15.90;99.90;;;;;;25599000;23;20190;-71
2022/05/05 23:16:39;;;;;;;0.20;0.10;;;15.90;99.90;;;;;;25625416;23;20174;-71
2022/05/05 23:26:43;;;;;;;0.20;0.10;;;15.80;99.90;;;;;;25652324;23;20191;-71
2022/05/05 23:36:49;;;;;;;0.20;0.10;;;15.60;99.90;;;;;;25656227;23;20376;-71
2022/05/05 23:46:54;;;;;;;0.20;0.10;;;15.70;99.90;;;;;;25660229;23;20262;-71
2022/05/05 23:56:59;;;;;;;0.20;0.10;;;15.70;99.90;;;;;;25660047;23;20497;-71
